sensor_id;sensor_type;location;lat;lon;timestamp;P1;durP1;ratioP1;P2;durP2;ratioP2
22531;SDS011;11432;46.924;7.114;2023-08-30T00:01:06;5.68;;;4.65;;
22531;SDS011;11432;46.924;7.114;2023-08-30T00:03:33;5.95;;;4.30;;
22531;SDS011;11432;46.924;7.114;2023-08-30T00:06:02;5.68;;;4.35;;
22531;SDS011;11432;46.924;7.114;2023-08-30T00:08:29;4.60;;;3.72;;
22531;SDS011;11432;46.924;7.114;2023-08-30T00:10:55;5.95;;;3.55;;
22531;SDS011;11432;46.924;7.114;2023-08-30T00:13:23;5.57;;;3.92;;
22531;SDS011;11432;46.924;7.114;2023-08-30T00:15:50;4.30;;;3.35;;
22531;SDS011;11432;46.924;7.114;2023-08-30T00:18:15;4.03;;;3.08;;
22531;SDS011;11432;46.924;7.114;2023-08-30T00:20:43;4.05;;;3.15;;
22531;SDS011;11432;46.924;7.114;2023-08-30T00:23:09;3.75;;;2.83;;
22531;SDS011;11432;46.924;7.114;2023-08-30T00:25:35;4.63;;;2.70;;
22531;SDS011;11432;46.924;7.114;2023-08-30T00:28:00;2.83;;;2.33;;
22531;SDS011;11432;46.924;7.114;2023-08-30T00:30:26;3.08;;;2.10;;
22531;SDS011;11432;46.924;7.114;2023-08-30T00:32:52;4.15;;;2.20;;
22531;SDS011;11432;46.924;7.114;2023-08-30T00:35:17;4.40;;;2.35;;
22531;SDS011;11432;46.924;7.114;2023-08-30T00:37:43;4.47;;;2.30;;
22531;SDS011;11432;46.924;7.114;2023-08-30T00:40:08;4.43;;;2.20;;
22531;SDS011;11432;46.924;7.114;2023-08-30T00:42:34;3.63;;;2.10;;
22531;SDS011;11432;46.924;7.114;2023-08-30T00:45:00;3.55;;;2.30;;
22531;SDS011;11432;46.924;7.114;2023-08-30T00:47:25;3.30;;;1.98;;
22531;SDS011;11432;46.924;7.114;2023-08-30T00:49:51;2.92;;;2.13;;
22531;SDS011;11432;46.924;7.114;2023-08-30T00:52:17;3.33;;;1.98;;
22531;SDS011;11432;46.924;7.114;2023-08-30T00:54:43;2.58;;;2.03;;
22531;SDS011;11432;46.924;7.114;2023-08-30T00:57:08;3.78;;;2.22;;
22531;SDS011;11432;46.924;7.114;2023-08-30T00:59:34;2.70;;;1.85;;
22531;SDS011;11432;46.924;7.114;2023-08-30T01:02:00;4.25;;;2.20;;
22531;SDS011;11432;46.924;7.114;2023-08-30T01:04:27;3.28;;;2.15;;
22531;SDS011;11432;46.924;7.114;2023-08-30T01:06:52;5.28;;;2.08;;
22531;SDS011;11432;46.924;7.114;2023-08-30T01:09:18;2.47;;;2.05;;
22531;SDS011;11432;46.924;7.114;2023-08-30T01:11:53;2.83;;;1.90;;
22531;SDS011;11432;46.924;7.114;2023-08-30T01:16:59;3.85;;;2.17;;
22531;SDS011;11432;46.924;7.114;2023-08-30T01:19:36;3.42;;;2.40;;
22531;SDS011;11432;46.924;7.114;2023-08-30T01:22:21;3.25;;;2.00;;
22531;SDS011;11432;46.924;7.114;2023-08-30T01:25:05;3.65;;;2.30;;
22531;SDS011;11432;46.924;7.114;2023-08-30T01:27:40;3.90;;;2.30;;
22531;SDS011;11432;46.924;7.114;2023-08-30T01:30:08;4.40;;;2.55;;
22531;SDS011;11432;46.924;7.114;2023-08-30T01:32:36;3.28;;;2.10;;
22531;SDS011;11432;46.924;7.114;2023-08-30T01:35:02;3.22;;;2.22;;
22531;SDS011;11432;46.924;7.114;2023-08-30T01:37:29;3.90;;;2.17;;
22531;SDS011;11432;46.924;7.114;2023-08-30T01:39:55;3.78;;;2.10;;
22531;SDS011;11432;46.924;7.114;2023-08-30T01:42:22;2.65;;;2.30;;
22531;SDS011;11432;46.924;7.114;2023-08-30T01:44:50;4.25;;;2.50;;
22531;SDS011;11432;46.924;7.114;2023-08-30T01:47:19;4.40;;;2.85;;
22531;SDS011;11432;46.924;7.114;2023-08-30T01:49:47;3.90;;;2.60;;
22531;SDS011;11432;46.924;7.114;2023-08-30T01:52:13;4.88;;;2.78;;
22531;SDS011;11432;46.924;7.114;2023-08-30T01:54:40;4.93;;;3.15;;
22531;SDS011;11432;46.924;7.114;2023-08-30T01:57:08;4.50;;;3.33;;
22531;SDS011;11432;46.924;7.114;2023-08-30T01:59:33;6.30;;;3.78;;
22531;SDS011;11432;46.924;7.114;2023-08-30T02:01:59;7.75;;;3.20;;
22531;SDS011;11432;46.924;7.114;2023-08-30T02:04:24;4.80;;;3.28;;
22531;SDS011;11432;46.924;7.114;2023-08-30T02:06:54;5.75;;;3.60;;
22531;SDS011;11432;46.924;7.114;2023-08-30T02:09:29;4.43;;;3.55;;
22531;SDS011;11432;46.924;7.114;2023-08-30T02:12:22;5.03;;;3.40;;
22531;SDS011;11432;46.924;7.114;2023-08-30T02:14:50;4.32;;;2.83;;
22531;SDS011;11432;46.924;7.114;2023-08-30T02:17:17;5.28;;;3.35;;
22531;SDS011;11432;46.924;7.114;2023-08-30T02:19:44;3.50;;;2.80;;
22531;SDS011;11432;46.924;7.114;2023-08-30T02:22:10;4.65;;;3.03;;
22531;SDS011;11432;46.924;7.114;2023-08-30T02:24:36;4.85;;;2.75;;
22531;SDS011;11432;46.924;7.114;2023-08-30T02:27:02;4.03;;;2.70;;
22531;SDS011;11432;46.924;7.114;2023-08-30T02:29:28;5.18;;;2.78;;
22531;SDS011;11432;46.924;7.114;2023-08-30T02:31:54;3.90;;;2.97;;
22531;SDS011;11432;46.924;7.114;2023-08-30T02:34:20;3.70;;;2.63;;
22531;SDS011;11432;46.924;7.114;2023-08-30T02:36:46;4.43;;;3.22;;
22531;SDS011;11432;46.924;7.114;2023-08-30T02:39:14;3.75;;;2.85;;
22531;SDS011;11432;46.924;7.114;2023-08-30T02:41:40;6.32;;;3.10;;
22531;SDS011;11432;46.924;7.114;2023-08-30T02:44:10;3.10;;;2.60;;
22531;SDS011;11432;46.924;7.114;2023-08-30T02:46:36;3.33;;;2.17;;
22531;SDS011;11432;46.924;7.114;2023-08-30T02:49:02;3.70;;;2.40;;
22531;SDS011;11432;46.924;7.114;2023-08-30T02:51:28;3.53;;;2.08;;
22531;SDS011;11432;46.924;7.114;2023-08-30T02:53:54;2.83;;;1.90;;
22531;SDS011;11432;46.924;7.114;2023-08-30T02:56:19;5.80;;;2.08;;
22531;SDS011;11432;46.924;7.114;2023-08-30T02:58:45;3.97;;;1.83;;
22531;SDS011;11432;46.924;7.114;2023-08-30T03:01:11;3.13;;;2.33;;
22531;SDS011;11432;46.924;7.114;2023-08-30T03:03:36;2.55;;;1.88;;
22531;SDS011;11432;46.924;7.114;2023-08-30T03:06:02;4.28;;;2.05;;
22531;SDS011;11432;46.924;7.114;2023-08-30T03:08:28;2.85;;;1.90;;
22531;SDS011;11432;46.924;7.114;2023-08-30T03:10:53;2.55;;;1.88;;
22531;SDS011;11432;46.924;7.114;2023-08-30T03:13:19;3.10;;;1.58;;
22531;SDS011;11432;46.924;7.114;2023-08-30T03:15:45;4.45;;;1.90;;
22531;SDS011;11432;46.924;7.114;2023-08-30T03:18:10;4.22;;;1.70;;
22531;SDS011;11432;46.924;7.114;2023-08-30T03:20:36;3.15;;;1.73;;
22531;SDS011;11432;46.924;7.114;2023-08-30T03:23:01;2.40;;;1.60;;
22531;SDS011;11432;46.924;7.114;2023-08-30T03:25:30;2.80;;;1.40;;
22531;SDS011;11432;46.924;7.114;2023-08-30T03:27:56;6.55;;;1.77;;
22531;SDS011;11432;46.924;7.114;2023-08-30T03:30:21;2.70;;;1.92;;
22531;SDS011;11432;46.924;7.114;2023-08-30T03:32:47;2.90;;;1.85;;
22531;SDS011;11432;46.924;7.114;2023-08-30T03:35:12;2.58;;;1.70;;
22531;SDS011;11432;46.924;7.114;2023-08-30T03:37:41;4.15;;;1.63;;
22531;SDS011;11432;46.924;7.114;2023-08-30T03:40:07;3.72;;;1.60;;
22531;SDS011;11432;46.924;7.114;2023-08-30T03:42:32;2.63;;;1.40;;
22531;SDS011;11432;46.924;7.114;2023-08-30T03:44:58;2.97;;;1.55;;
22531;SDS011;11432;46.924;7.114;2023-08-30T03:47:23;2.90;;;1.75;;
22531;SDS011;11432;46.924;7.114;2023-08-30T03:49:49;3.00;;;1.40;;
22531;SDS011;11432;46.924;7.114;2023-08-30T03:52:15;2.80;;;1.50;;
22531;SDS011;11432;46.924;7.114;2023-08-30T03:54:40;2.92;;;1.40;;
22531;SDS011;11432;46.924;7.114;2023-08-30T03:57:06;4.47;;;1.95;;
22531;SDS011;11432;46.924;7.114;2023-08-30T03:59:32;2.10;;;1.30;;
22531;SDS011;11432;46.924;7.114;2023-08-30T04:01:58;2.63;;;1.80;;
22531;SDS011;11432;46.924;7.114;2023-08-30T04:04:23;4.25;;;1.70;;
22531;SDS011;11432;46.924;7.114;2023-08-30T04:06:49;4.30;;;1.50;;
22531;SDS011;11432;46.924;7.114;2023-08-30T04:09:15;2.58;;;1.20;;
22531;SDS011;11432;46.924;7.114;2023-08-30T04:11:40;2.55;;;1.58;;
22531;SDS011;11432;46.924;7.114;2023-08-30T04:14:07;4.82;;;1.65;;
22531;SDS011;11432;46.924;7.114;2023-08-30T04:16:32;3.25;;;1.58;;
22531;SDS011;11432;46.924;7.114;2023-08-30T04:18:58;4.20;;;1.80;;
22531;SDS011;11432;46.924;7.114;2023-08-30T04:21:24;4.20;;;1.40;;
22531;SDS011;11432;46.924;7.114;2023-08-30T04:23:49;3.40;;;1.40;;
22531;SDS011;11432;46.924;7.114;2023-08-30T04:26:15;3.85;;;1.23;;
22531;SDS011;11432;46.924;7.114;2023-08-30T04:28:40;2.40;;;1.50;;
22531;SDS011;11432;46.924;7.114;2023-08-30T04:31:06;2.75;;;1.15;;
22531;SDS011;11432;46.924;7.114;2023-08-30T04:33:32;3.08;;;1.67;;
22531;SDS011;11432;46.924;7.114;2023-08-30T04:35:57;3.83;;;1.40;;
22531;SDS011;11432;46.924;7.114;2023-08-30T04:38:25;1.80;;;1.30;;
22531;SDS011;11432;46.924;7.114;2023-08-30T04:40:56;2.25;;;1.50;;
22531;SDS011;11432;46.924;7.114;2023-08-30T04:43:23;3.70;;;1.30;;
22531;SDS011;11432;46.924;7.114;2023-08-30T04:45:48;4.07;;;1.50;;
22531;SDS011;11432;46.924;7.114;2023-08-30T04:48:14;2.08;;;1.27;;
22531;SDS011;11432;46.924;7.114;2023-08-30T04:50:40;4.15;;;1.50;;
22531;SDS011;11432;46.924;7.114;2023-08-30T04:53:05;1.65;;;1.08;;
22531;SDS011;11432;46.924;7.114;2023-08-30T04:55:32;2.05;;;1.10;;
22531;SDS011;11432;46.924;7.114;2023-08-30T04:57:57;3.05;;;1.08;;
22531;SDS011;11432;46.924;7.114;2023-08-30T05:00:23;3.10;;;1.20;;
22531;SDS011;11432;46.924;7.114;2023-08-30T05:02:49;4.18;;;1.30;;
22531;SDS011;11432;46.924;7.114;2023-08-30T05:05:14;2.47;;;1.02;;
22531;SDS011;11432;46.924;7.114;2023-08-30T05:07:40;2.70;;;1.02;;
22531;SDS011;11432;46.924;7.114;2023-08-30T05:10:06;2.17;;;0.95;;
22531;SDS011;11432;46.924;7.114;2023-08-30T05:12:33;4.30;;;1.00;;
22531;SDS011;11432;46.924;7.114;2023-08-30T05:14:59;4.88;;;1.20;;
22531;SDS011;11432;46.924;7.114;2023-08-30T05:17:25;4.65;;;1.30;;
22531;SDS011;11432;46.924;7.114;2023-08-30T05:19:53;1.67;;;1.00;;
22531;SDS011;11432;46.924;7.114;2023-08-30T05:22:19;2.88;;;1.20;;
22531;SDS011;11432;46.924;7.114;2023-08-30T05:24:44;2.80;;;1.10;;
22531;SDS011;11432;46.924;7.114;2023-08-30T05:27:10;3.53;;;1.15;;
22531;SDS011;11432;46.924;7.114;2023-08-30T05:29:36;1.48;;;1.00;;
22531;SDS011;11432;46.924;7.114;2023-08-30T05:32:02;1.77;;;1.20;;
22531;SDS011;11432;46.924;7.114;2023-08-30T05:34:28;2.03;;;1.13;;
22531;SDS011;11432;46.924;7.114;2023-08-30T05:36:54;2.85;;;1.10;;
22531;SDS011;11432;46.924;7.114;2023-08-30T05:39:19;2.85;;;1.33;;
22531;SDS011;11432;46.924;7.114;2023-08-30T05:41:45;1.90;;;1.30;;
22531;SDS011;11432;46.924;7.114;2023-08-30T05:44:11;2.60;;;1.45;;
22531;SDS011;11432;46.924;7.114;2023-08-30T05:46:36;4.40;;;1.05;;
22531;SDS011;11432;46.924;7.114;2023-08-30T05:49:02;5.97;;;1.30;;
22531;SDS011;11432;46.924;7.114;2023-08-30T05:51:28;3.03;;;1.10;;
22531;SDS011;11432;46.924;7.114;2023-08-30T05:54:48;0.95;;;0.75;;
22531;SDS011;11432;46.924;7.114;2023-08-30T05:57:14;2.40;;;0.80;;
22531;SDS011;11432;46.924;7.114;2023-08-30T05:59:39;0.98;;;0.80;;
22531;SDS011;11432;46.924;7.114;2023-08-30T06:02:05;2.70;;;0.85;;
22531;SDS011;11432;46.924;7.114;2023-08-30T06:06:56;2.00;;;1.00;;
22531;SDS011;11432;46.924;7.114;2023-08-30T06:09:22;3.65;;;1.00;;
22531;SDS011;11432;46.924;7.114;2023-08-30T06:11:47;2.50;;;1.13;;
22531;SDS011;11432;46.924;7.114;2023-08-30T06:14:13;1.98;;;1.00;;
22531;SDS011;11432;46.924;7.114;2023-08-30T06:16:39;1.38;;;1.00;;
22531;SDS011;11432;46.924;7.114;2023-08-30T06:19:09;1.60;;;0.90;;
22531;SDS011;11432;46.924;7.114;2023-08-30T06:21:35;2.17;;;0.90;;
22531;SDS011;11432;46.924;7.114;2023-08-30T06:24:01;2.85;;;1.10;;
22531;SDS011;11432;46.924;7.114;2023-08-30T06:26:26;2.60;;;0.90;;
22531;SDS011;11432;46.924;7.114;2023-08-30T06:28:52;2.10;;;1.10;;
22531;SDS011;11432;46.924;7.114;2023-08-30T06:31:18;3.17;;;0.90;;
22531;SDS011;11432;46.924;7.114;2023-08-30T06:33:43;2.53;;;0.90;;
22531;SDS011;11432;46.924;7.114;2023-08-30T06:36:09;1.80;;;0.90;;
22531;SDS011;11432;46.924;7.114;2023-08-30T06:38:36;1.58;;;1.23;;
22531;SDS011;11432;46.924;7.114;2023-08-30T06:41:02;2.60;;;1.35;;
22531;SDS011;11432;46.924;7.114;2023-08-30T06:43:28;1.63;;;1.00;;
22531;SDS011;11432;46.924;7.114;2023-08-30T06:45:53;2.72;;;1.40;;
22531;SDS011;11432;46.924;7.114;2023-08-30T06:48:23;3.20;;;0.98;;
22531;SDS011;11432;46.924;7.114;2023-08-30T06:50:48;2.22;;;1.20;;
22531;SDS011;11432;46.924;7.114;2023-08-30T06:53:14;1.52;;;1.15;;
22531;SDS011;11432;46.924;7.114;2023-08-30T06:55:40;2.42;;;1.20;;
22531;SDS011;11432;46.924;7.114;2023-08-30T06:58:05;3.80;;;1.50;;
22531;SDS011;11432;46.924;7.114;2023-08-30T07:00:31;3.90;;;1.45;;
22531;SDS011;11432;46.924;7.114;2023-08-30T07:02:56;3.53;;;1.30;;
22531;SDS011;11432;46.924;7.114;2023-08-30T07:05:22;3.15;;;1.50;;
22531;SDS011;11432;46.924;7.114;2023-08-30T07:07:48;2.42;;;1.48;;
22531;SDS011;11432;46.924;7.114;2023-08-30T07:10:14;4.25;;;1.60;;
22531;SDS011;11432;46.924;7.114;2023-08-30T07:12:40;2.38;;;1.20;;
22531;SDS011;11432;46.924;7.114;2023-08-30T07:15:05;2.15;;;1.30;;
22531;SDS011;11432;46.924;7.114;2023-08-30T07:17:31;2.53;;;1.30;;
22531;SDS011;11432;46.924;7.114;2023-08-30T07:19:57;2.30;;;1.48;;
22531;SDS011;11432;46.924;7.114;2023-08-30T07:22:23;3.03;;;1.58;;
22531;SDS011;11432;46.924;7.114;2023-08-30T07:24:48;1.90;;;1.27;;
22531;SDS011;11432;46.924;7.114;2023-08-30T07:27:14;2.42;;;1.50;;
22531;SDS011;11432;46.924;7.114;2023-08-30T07:29:39;6.80;;;1.55;;
22531;SDS011;11432;46.924;7.114;2023-08-30T07:32:06;3.90;;;1.40;;
22531;SDS011;11432;46.924;7.114;2023-08-30T07:34:35;1.98;;;1.30;;
22531;SDS011;11432;46.924;7.114;2023-08-30T07:37:00;2.40;;;1.50;;
22531;SDS011;11432;46.924;7.114;2023-08-30T07:39:26;2.85;;;1.40;;
22531;SDS011;11432;46.924;7.114;2023-08-30T07:41:52;2.40;;;1.40;;
22531;SDS011;11432;46.924;7.114;2023-08-30T07:44:18;5.10;;;1.35;;
22531;SDS011;11432;46.924;7.114;2023-08-30T07:46:45;2.95;;;1.60;;
22531;SDS011;11432;46.924;7.114;2023-08-30T07:49:11;1.80;;;1.20;;
22531;SDS011;11432;46.924;7.114;2023-08-30T07:51:36;5.00;;;1.65;;
22531;SDS011;11432;46.924;7.114;2023-08-30T07:54:02;2.05;;;1.45;;
22531;SDS011;11432;46.924;7.114;2023-08-30T07:56:28;3.03;;;1.40;;
22531;SDS011;11432;46.924;7.114;2023-08-30T07:58:54;4.07;;;1.40;;
22531;SDS011;11432;46.924;7.114;2023-08-30T08:01:20;2.63;;;1.50;;
22531;SDS011;11432;46.924;7.114;2023-08-30T08:03:45;3.42;;;1.10;;
22531;SDS011;11432;46.924;7.114;2023-08-30T08:06:12;3.15;;;1.35;;
22531;SDS011;11432;46.924;7.114;2023-08-30T08:08:37;3.83;;;1.60;;
22531;SDS011;11432;46.924;7.114;2023-08-30T08:11:03;2.65;;;1.17;;
22531;SDS011;11432;46.924;7.114;2023-08-30T08:13:28;1.45;;;1.02;;
22531;SDS011;11432;46.924;7.114;2023-08-30T08:15:57;2.80;;;1.23;;
22531;SDS011;11432;46.924;7.114;2023-08-30T08:18:23;1.65;;;1.40;;
22531;SDS011;11432;46.924;7.114;2023-08-30T08:20:49;2.63;;;1.20;;
22531;SDS011;11432;46.924;7.114;2023-08-30T08:23:15;3.20;;;1.20;;
22531;SDS011;11432;46.924;7.114;2023-08-30T08:25:40;2.72;;;1.33;;
22531;SDS011;11432;46.924;7.114;2023-08-30T08:28:06;3.58;;;1.10;;
22531;SDS011;11432;46.924;7.114;2023-08-30T08:30:31;3.20;;;1.20;;
22531;SDS011;11432;46.924;7.114;2023-08-30T08:32:57;1.60;;;1.10;;
22531;SDS011;11432;46.924;7.114;2023-08-30T08:35:24;1.65;;;1.10;;
22531;SDS011;11432;46.924;7.114;2023-08-30T08:37:49;2.40;;;1.20;;
22531;SDS011;11432;46.924;7.114;2023-08-30T08:40:16;4.43;;;1.15;;
22531;SDS011;11432;46.924;7.114;2023-08-30T08:42:41;2.08;;;1.20;;
22531;SDS011;11432;46.924;7.114;2023-08-30T08:45:08;2.08;;;1.50;;
22531;SDS011;11432;46.924;7.114;2023-08-30T08:47:36;2.27;;;1.23;;
22531;SDS011;11432;46.924;7.114;2023-08-30T08:50:03;3.38;;;1.20;;
22531;SDS011;11432;46.924;7.114;2023-08-30T08:52:29;2.55;;;1.25;;
22531;SDS011;11432;46.924;7.114;2023-08-30T08:54:55;3.63;;;1.40;;
22531;SDS011;11432;46.924;7.114;2023-08-30T08:57:22;2.20;;;1.30;;
22531;SDS011;11432;46.924;7.114;2023-08-30T08:59:48;4.95;;;1.52;;
22531;SDS011;11432;46.924;7.114;2023-08-30T09:02:15;3.50;;;1.40;;
22531;SDS011;11432;46.924;7.114;2023-08-30T09:04:41;3.17;;;1.70;;
22531;SDS011;11432;46.924;7.114;2023-08-30T09:07:06;3.30;;;1.58;;
22531;SDS011;11432;46.924;7.114;2023-08-30T09:09:33;2.00;;;1.13;;
22531;SDS011;11432;46.924;7.114;2023-08-30T09:11:58;2.50;;;1.42;;
22531;SDS011;11432;46.924;7.114;2023-08-30T09:14:24;3.30;;;1.30;;
22531;SDS011;11432;46.924;7.114;2023-08-30T09:17:00;4.95;;;1.83;;
22531;SDS011;11432;46.924;7.114;2023-08-30T09:19:27;4.13;;;1.90;;
22531;SDS011;11432;46.924;7.114;2023-08-30T09:21:59;2.45;;;1.55;;
22531;SDS011;11432;46.924;7.114;2023-08-30T09:24:25;1.73;;;1.35;;
22531;SDS011;11432;46.924;7.114;2023-08-30T09:27:02;3.13;;;1.75;;
22531;SDS011;11432;46.924;7.114;2023-08-30T09:29:28;6.10;;;1.83;;
22531;SDS011;11432;46.924;7.114;2023-08-30T09:31:55;2.83;;;1.63;;
22531;SDS011;11432;46.924;7.114;2023-08-30T09:34:23;4.13;;;2.03;;
22531;SDS011;11432;46.924;7.114;2023-08-30T09:36:53;2.78;;;1.63;;
22531;SDS011;11432;46.924;7.114;2023-08-30T09:39:19;2.72;;;1.60;;
22531;SDS011;11432;46.924;7.114;2023-08-30T09:41:46;2.33;;;1.63;;
22531;SDS011;11432;46.924;7.114;2023-08-30T09:44:14;2.60;;;1.50;;
22531;SDS011;11432;46.924;7.114;2023-08-30T09:46:48;2.60;;;1.80;;
22531;SDS011;11432;46.924;7.114;2023-08-30T09:49:15;2.35;;;1.63;;
22531;SDS011;11432;46.924;7.114;2023-08-30T09:51:44;3.05;;;1.60;;
22531;SDS011;11432;46.924;7.114;2023-08-30T09:54:16;4.45;;;2.10;;
22531;SDS011;11432;46.924;7.114;2023-08-30T09:56:46;2.40;;;1.60;;
22531;SDS011;11432;46.924;7.114;2023-08-30T09:59:13;3.55;;;1.80;;
22531;SDS011;11432;46.924;7.114;2023-08-30T10:01:40;5.78;;;2.00;;
22531;SDS011;11432;46.924;7.114;2023-08-30T10:04:10;3.65;;;1.55;;
22531;SDS011;11432;46.924;7.114;2023-08-30T10:06:37;2.33;;;1.40;;
22531;SDS011;11432;46.924;7.114;2023-08-30T10:09:04;4.07;;;2.08;;
22531;SDS011;11432;46.924;7.114;2023-08-30T10:11:34;4.47;;;2.15;;
22531;SDS011;11432;46.924;7.114;2023-08-30T10:14:02;4.07;;;1.83;;
22531;SDS011;11432;46.924;7.114;2023-08-30T10:16:30;2.85;;;1.75;;
22531;SDS011;11432;46.924;7.114;2023-08-30T10:24:10;3.65;;;2.00;;
22531;SDS011;11432;46.924;7.114;2023-08-30T10:26:39;2.97;;;2.00;;
22531;SDS011;11432;46.924;7.114;2023-08-30T10:29:06;5.38;;;2.50;;
22531;SDS011;11432;46.924;7.114;2023-08-30T10:31:33;2.88;;;1.73;;
22531;SDS011;11432;46.924;7.114;2023-08-30T10:33:58;4.55;;;1.92;;
22531;SDS011;11432;46.924;7.114;2023-08-30T10:36:24;2.67;;;2.00;;
22531;SDS011;11432;46.924;7.114;2023-08-30T10:38:51;3.42;;;2.20;;
22531;SDS011;11432;46.924;7.114;2023-08-30T10:41:22;4.20;;;2.17;;
22531;SDS011;11432;46.924;7.114;2023-08-30T10:43:49;3.20;;;2.25;;
22531;SDS011;11432;46.924;7.114;2023-08-30T10:46:17;4.72;;;2.55;;
22531;SDS011;11432;46.924;7.114;2023-08-30T10:48:53;5.57;;;2.58;;
22531;SDS011;11432;46.924;7.114;2023-08-30T10:51:19;2.83;;;2.00;;
22531;SDS011;11432;46.924;7.114;2023-08-30T10:53:59;2.50;;;2.10;;
22531;SDS011;11432;46.924;7.114;2023-08-30T10:56:29;2.88;;;2.08;;
22531;SDS011;11432;46.924;7.114;2023-08-30T10:58:55;5.00;;;1.63;;
22531;SDS011;11432;46.924;7.114;2023-08-30T11:01:20;2.17;;;1.45;;
22531;SDS011;11432;46.924;7.114;2023-08-30T11:03:47;2.78;;;1.73;;
22531;SDS011;11432;46.924;7.114;2023-08-30T11:06:15;2.38;;;2.00;;
22531;SDS011;11432;46.924;7.114;2023-08-30T11:08:42;3.92;;;2.20;;
22531;SDS011;11432;46.924;7.114;2023-08-30T11:11:09;9.00;;;2.00;;
22531;SDS011;11432;46.924;7.114;2023-08-30T11:13:37;2.17;;;1.73;;
22531;SDS011;11432;46.924;7.114;2023-08-30T11:16:03;2.20;;;1.58;;
22531;SDS011;11432;46.924;7.114;2023-08-30T11:18:36;3.00;;;1.55;;
22531;SDS011;11432;46.924;7.114;2023-08-30T11:21:03;2.80;;;1.30;;
22531;SDS011;11432;46.924;7.114;2023-08-30T11:23:29;4.15;;;1.30;;
22531;SDS011;11432;46.924;7.114;2023-08-30T11:25:55;2.78;;;1.10;;
22531;SDS011;11432;46.924;7.114;2023-08-30T11:28:24;2.55;;;1.30;;
22531;SDS011;11432;46.924;7.114;2023-08-30T11:30:53;3.08;;;2.20;;
22531;SDS011;11432;46.924;7.114;2023-08-30T11:35:48;2.83;;;2.07;;
22531;SDS011;11432;46.924;7.114;2023-08-30T11:38:16;3.25;;;2.03;;
22531;SDS011;11432;46.924;7.114;2023-08-30T11:40:43;3.40;;;1.83;;
22531;SDS011;11432;46.924;7.114;2023-08-30T11:43:09;3.03;;;2.13;;
22531;SDS011;11432;46.924;7.114;2023-08-30T11:45:35;3.58;;;2.50;;
22531;SDS011;11432;46.924;7.114;2023-08-30T11:48:01;3.75;;;2.17;;
22531;SDS011;11432;46.924;7.114;2023-08-30T11:50:27;2.90;;;1.90;;
22531;SDS011;11432;46.924;7.114;2023-08-30T11:52:54;2.58;;;1.83;;
22531;SDS011;11432;46.924;7.114;2023-08-30T11:55:20;4.35;;;2.65;;
22531;SDS011;11432;46.924;7.114;2023-08-30T11:57:49;3.08;;;2.08;;
22531;SDS011;11432;46.924;7.114;2023-08-30T12:00:18;3.90;;;2.05;;
22531;SDS011;11432;46.924;7.114;2023-08-30T12:02:45;3.67;;;2.47;;
22531;SDS011;11432;46.924;7.114;2023-08-30T12:05:12;3.35;;;2.53;;
22531;SDS011;11432;46.924;7.114;2023-08-30T12:07:38;3.70;;;3.08;;
22531;SDS011;11432;46.924;7.114;2023-08-30T12:10:05;5.35;;;2.83;;
22531;SDS011;11432;46.924;7.114;2023-08-30T12:12:32;4.55;;;2.88;;
22531;SDS011;11432;46.924;7.114;2023-08-30T12:14:58;5.40;;;2.40;;
22531;SDS011;11432;46.924;7.114;2023-08-30T12:17:24;3.47;;;3.05;;
22531;SDS011;11432;46.924;7.114;2023-08-30T12:19:56;3.33;;;2.20;;
22531;SDS011;11432;46.924;7.114;2023-08-30T12:22:22;3.28;;;2.80;;
22531;SDS011;11432;46.924;7.114;2023-08-30T12:24:48;4.00;;;2.60;;
22531;SDS011;11432;46.924;7.114;2023-08-30T12:27:13;3.85;;;3.03;;
22531;SDS011;11432;46.924;7.114;2023-08-30T12:29:39;4.85;;;2.28;;
22531;SDS011;11432;46.924;7.114;2023-08-30T12:32:05;4.47;;;2.90;;
22531;SDS011;11432;46.924;7.114;2023-08-30T12:34:32;3.75;;;2.50;;
22531;SDS011;11432;46.924;7.114;2023-08-30T12:36:58;4.07;;;2.42;;
22531;SDS011;11432;46.924;7.114;2023-08-30T12:39:24;2.63;;;1.77;;
22531;SDS011;11432;46.924;7.114;2023-08-30T12:41:49;2.20;;;1.90;;
22531;SDS011;11432;46.924;7.114;2023-08-30T12:44:15;3.67;;;1.83;;
22531;SDS011;11432;46.924;7.114;2023-08-30T12:46:40;3.95;;;2.38;;
22531;SDS011;11432;46.924;7.114;2023-08-30T12:49:06;2.28;;;1.70;;
22531;SDS011;11432;46.924;7.114;2023-08-30T12:51:32;4.28;;;1.55;;
22531;SDS011;11432;46.924;7.114;2023-08-30T12:53:58;2.30;;;2.10;;
22531;SDS011;11432;46.924;7.114;2023-08-30T12:56:23;2.05;;;1.50;;
22531;SDS011;11432;46.924;7.114;2023-08-30T12:58:49;2.78;;;1.45;;
22531;SDS011;11432;46.924;7.114;2023-08-30T13:01:16;1.75;;;1.10;;
22531;SDS011;11432;46.924;7.114;2023-08-30T13:03:42;2.67;;;1.40;;
22531;SDS011;11432;46.924;7.114;2023-08-30T13:06:07;2.47;;;1.65;;
22531;SDS011;11432;46.924;7.114;2023-08-30T13:08:33;3.33;;;1.48;;
22531;SDS011;11432;46.924;7.114;2023-08-30T13:10:59;2.00;;;1.20;;
22531;SDS011;11432;46.924;7.114;2023-08-30T13:13:25;3.78;;;1.30;;
22531;SDS011;11432;46.924;7.114;2023-08-30T13:15:50;1.77;;;1.13;;
22531;SDS011;11432;46.924;7.114;2023-08-30T13:18:16;1.95;;;1.10;;
22531;SDS011;11432;46.924;7.114;2023-08-30T13:20:42;3.08;;;1.20;;
22531;SDS011;11432;46.924;7.114;2023-08-30T13:23:08;1.60;;;1.10;;
22531;SDS011;11432;46.924;7.114;2023-08-30T13:25:37;2.38;;;1.05;;
22531;SDS011;11432;46.924;7.114;2023-08-30T13:28:04;1.67;;;1.00;;
22531;SDS011;11432;46.924;7.114;2023-08-30T13:30:29;2.42;;;1.25;;
22531;SDS011;11432;46.924;7.114;2023-08-30T13:32:55;2.03;;;1.33;;
22531;SDS011;11432;46.924;7.114;2023-08-30T13:35:21;2.45;;;1.13;;
22531;SDS011;11432;46.924;7.114;2023-08-30T13:37:46;2.40;;;1.20;;
22531;SDS011;11432;46.924;7.114;2023-08-30T13:40:12;3.55;;;1.40;;
22531;SDS011;11432;46.924;7.114;2023-08-30T13:42:38;1.92;;;1.23;;
22531;SDS011;11432;46.924;7.114;2023-08-30T13:45:03;2.65;;;1.10;;
22531;SDS011;11432;46.924;7.114;2023-08-30T13:47:31;2.50;;;1.10;;
22531;SDS011;11432;46.924;7.114;2023-08-30T13:49:56;2.72;;;1.00;;
22531;SDS011;11432;46.924;7.114;2023-08-30T13:52:24;1.30;;;0.82;;
22531;SDS011;11432;46.924;7.114;2023-08-30T13:54:50;2.22;;;1.00;;
22531;SDS011;11432;46.924;7.114;2023-08-30T13:57:16;1.00;;;0.80;;
22531;SDS011;11432;46.924;7.114;2023-08-30T13:59:42;1.65;;;0.98;;
22531;SDS011;11432;46.924;7.114;2023-08-30T14:02:08;1.08;;;0.90;;
22531;SDS011;11432;46.924;7.114;2023-08-30T14:04:33;3.00;;;1.20;;
22531;SDS011;11432;46.924;7.114;2023-08-30T14:07:01;1.52;;;0.95;;
22531;SDS011;11432;46.924;7.114;2023-08-30T14:09:28;2.03;;;1.10;;
22531;SDS011;11432;46.924;7.114;2023-08-30T14:11:54;2.80;;;1.25;;
22531;SDS011;11432;46.924;7.114;2023-08-30T14:14:20;1.40;;;1.10;;
22531;SDS011;11432;46.924;7.114;2023-08-30T14:16:45;3.45;;;1.08;;
22531;SDS011;11432;46.924;7.114;2023-08-30T14:19:11;3.92;;;1.05;;
22531;SDS011;11432;46.924;7.114;2023-08-30T14:21:37;0.93;;;0.80;;
22531;SDS011;11432;46.924;7.114;2023-08-30T14:24:02;1.80;;;1.15;;
22531;SDS011;11432;46.924;7.114;2023-08-30T14:26:28;2.60;;;1.08;;
22531;SDS011;11432;46.924;7.114;2023-08-30T14:28:54;5.97;;;1.08;;
22531;SDS011;11432;46.924;7.114;2023-08-30T14:31:19;2.17;;;0.90;;
22531;SDS011;11432;46.924;7.114;2023-08-30T14:33:45;2.05;;;1.10;;
22531;SDS011;11432;46.924;7.114;2023-08-30T14:36:11;3.70;;;1.08;;
22531;SDS011;11432;46.924;7.114;2023-08-30T14:38:37;1.42;;;0.95;;
22531;SDS011;11432;46.924;7.114;2023-08-30T14:41:03;1.88;;;0.80;;
22531;SDS011;11432;46.924;7.114;2023-08-30T14:43:29;2.58;;;1.00;;
22531;SDS011;11432;46.924;7.114;2023-08-30T14:46:04;1.40;;;0.90;;
22531;SDS011;11432;46.924;7.114;2023-08-30T14:48:31;1.48;;;0.90;;
22531;SDS011;11432;46.924;7.114;2023-08-30T14:50:58;1.90;;;1.13;;
22531;SDS011;11432;46.924;7.114;2023-08-30T14:53:24;4.03;;;1.20;;
22531;SDS011;11432;46.924;7.114;2023-08-30T14:55:50;2.47;;;0.93;;
22531;SDS011;11432;46.924;7.114;2023-08-30T14:58:15;1.23;;;0.90;;